sensor_id;sensor_type;location;lat;lon;timestamp;pressure;altitude;pressure_sealevel;temperature;humidity
63493;BME280;49638;47.526;10.028;2023-02-15T00:02:53;92759.25;;;1.13;69.21
63493;BME280;49638;47.526;10.028;2023-02-15T00:05:56;92756.81;;;1.04;69.44
63493;BME280;49638;47.526;10.028;2023-02-15T00:08:57;92759.75;;;1.09;69.31
63493;BME280;49638;47.526;10.028;2023-02-15T00:11:57;92745.41;;;1.05;68.98
63493;BME280;49638;47.526;10.028;2023-02-15T00:14:57;92748.34;;;1.18;68.72
63493;BME280;49638;47.526;10.028;2023-02-15T00:17:58;92751.13;;;1.25;68.75
63493;BME280;49638;47.526;10.028;2023-02-15T00:21:02;92752.59;;;1.27;68.67
63493;BME280;49638;47.526;10.028;2023-02-15T00:24:05;92753.09;;;1.31;68.57
63493;BME280;49638;47.526;10.028;2023-02-15T00:27:05;92751.63;;;1.28;68.89
63493;BME280;49638;47.526;10.028;2023-02-15T00:30:06;92741.69;;;1.24;68.50
63493;BME280;49638;47.526;10.028;2023-02-15T00:33:06;92747.38;;;1.35;68.43
63493;BME280;49638;47.526;10.028;2023-02-15T00:36:08;92746.91;;;1.32;68.44
63493;BME280;49638;47.526;10.028;2023-02-15T00:39:09;92743.97;;;1.27;68.60
63493;BME280;49638;47.526;10.028;2023-02-15T00:42:09;92739.41;;;1.29;68.15
63493;BME280;49638;47.526;10.028;2023-02-15T00:45:09;92740.25;;;1.29;68.52
63493;BME280;49638;47.526;10.028;2023-02-15T00:48:10;92738.28;;;1.23;68.61
63493;BME280;49638;47.526;10.028;2023-02-15T00:51:10;92740.38;;;1.11;68.81
63493;BME280;49638;47.526;10.028;2023-02-15T00:54:11;92737.91;;;1.02;68.91
63493;BME280;49638;47.526;10.028;2023-02-15T00:57:12;92736.78;;;0.96;68.98
63493;BME280;49638;47.526;10.028;2023-02-15T01:00:12;92723.91;;;0.94;68.90
63493;BME280;49638;47.526;10.028;2023-02-15T01:03:14;92727.00;;;0.90;68.96
63493;BME280;49638;47.526;10.028;2023-02-15T01:06:16;92713.00;;;0.83;68.99
63493;BME280;49638;47.526;10.028;2023-02-15T01:09:16;92712.53;;;0.87;68.61
63493;BME280;49638;47.526;10.028;2023-02-15T01:12:16;92712.19;;;0.82;68.81
63493;BME280;49638;47.526;10.028;2023-02-15T01:15:17;92718.34;;;0.81;68.82
63493;BME280;49638;47.526;10.028;2023-02-15T01:18:18;92721.81;;;0.90;68.57
63493;BME280;49638;47.526;10.028;2023-02-15T01:21:20;92717.59;;;0.97;68.37
63493;BME280;49638;47.526;10.028;2023-02-15T01:24:20;92709.94;;;0.96;68.25
63493;BME280;49638;47.526;10.028;2023-02-15T01:27:21;92703.25;;;1.01;68.13
63493;BME280;49638;47.526;10.028;2023-02-15T01:30:21;92731.44;;;1.14;67.92
63493;BME280;49638;47.526;10.028;2023-02-15T01:33:21;92726.22;;;1.22;67.97
63493;BME280;49638;47.526;10.028;2023-02-15T01:36:21;92721.50;;;1.26;67.74
63493;BME280;49638;47.526;10.028;2023-02-15T01:39:22;92724.09;;;1.26;67.91
63493;BME280;49638;47.526;10.028;2023-02-15T01:42:23;92724.59;;;1.21;67.77
63493;BME280;49638;47.526;10.028;2023-02-15T01:45:29;92718.09;;;1.17;67.19
63493;BME280;49638;47.526;10.028;2023-02-15T01:48:30;92717.59;;;1.22;67.25
63493;BME280;49638;47.526;10.028;2023-02-15T01:51:33;92718.25;;;1.15;66.85
63493;BME280;49638;47.526;10.028;2023-02-15T01:54:36;92725.25;;;1.23;67.07
63493;BME280;49638;47.526;10.028;2023-02-15T01:57:39;92721.69;;;1.16;66.98
63493;BME280;49638;47.526;10.028;2023-02-15T02:00:40;92720.03;;;1.15;66.93
63493;BME280;49638;47.526;10.028;2023-02-15T02:03:56;92721.34;;;1.11;66.54
63493;BME280;49638;47.526;10.028;2023-02-15T02:06:59;92717.94;;;1.10;67.51
63493;BME280;49638;47.526;10.028;2023-02-15T02:10:01;92710.91;;;1.11;67.24
63493;BME280;49638;47.526;10.028;2023-02-15T02:13:04;92698.41;;;1.06;67.13
63493;BME280;49638;47.526;10.028;2023-02-15T02:16:13;92710.94;;;1.19;66.38
63493;BME280;49638;47.526;10.028;2023-02-15T02:33:20;92704.41;;;0.99;67.48
63493;BME280;49638;47.526;10.028;2023-02-15T02:36:33;92700.19;;;0.89;67.35
63493;BME280;49638;47.526;10.028;2023-02-15T02:39:55;92701.63;;;0.84;67.83
63493;BME280;49638;47.526;10.028;2023-02-15T02:43:02;92701.75;;;0.74;67.56
63493;BME280;49638;47.526;10.028;2023-02-15T02:46:20;92700.47;;;0.70;66.62
63493;BME280;49638;47.526;10.028;2023-02-15T02:52:46;92692.69;;;0.78;66.45
63493;BME280;49638;47.526;10.028;2023-02-15T02:55:59;92670.22;;;0.77;66.52
63493;BME280;49638;47.526;10.028;2023-02-15T02:59:33;92693.03;;;1.00;66.37
63493;BME280;49638;47.526;10.028;2023-02-15T03:02:40;92696.63;;;0.99;67.24
63493;BME280;49638;47.526;10.028;2023-02-15T03:05:43;92694.66;;;1.01;67.11
63493;BME280;49638;47.526;10.028;2023-02-15T03:08:48;92693.34;;;1.05;66.86
63493;BME280;49638;47.526;10.028;2023-02-15T03:11:49;92693.50;;;0.95;67.37
63493;BME280;49638;47.526;10.028;2023-02-15T03:14:52;92694.66;;;0.92;67.50
63493;BME280;49638;47.526;10.028;2023-02-15T03:17:59;92697.88;;;0.94;66.73
63493;BME280;49638;47.526;10.028;2023-02-15T03:21:04;92704.41;;;1.07;66.76
63493;BME280;49638;47.526;10.028;2023-02-15T03:24:09;92708.31;;;1.11;66.65
63493;BME280;49638;47.526;10.028;2023-02-15T03:27:15;92707.19;;;1.13;66.63
63493;BME280;49638;47.526;10.028;2023-02-15T03:30:20;92711.91;;;1.18;66.18
63493;BME280;49638;47.526;10.028;2023-02-15T03:33:22;92713.06;;;1.24;65.68
63493;BME280;49638;47.526;10.028;2023-02-15T03:36:34;92719.88;;;1.25;65.43
63493;BME280;49638;47.526;10.028;2023-02-15T03:39:42;92718.59;;;1.21;66.38
63493;BME280;49638;47.526;10.028;2023-02-15T03:42:45;92716.97;;;1.20;66.45
63493;BME280;49638;47.526;10.028;2023-02-15T03:45:52;92713.22;;;1.14;65.97
63493;BME280;49638;47.526;10.028;2023-02-15T03:49:01;92712.72;;;1.18;65.56
63493;BME280;49638;47.526;10.028;2023-02-15T03:52:04;92708.00;;;1.22;65.52
63493;BME280;49638;47.526;10.028;2023-02-15T03:55:06;92710.94;;;1.19;65.81
63493;BME280;49638;47.526;10.028;2023-02-15T03:58:06;92714.00;;;1.14;65.78
63493;BME280;49638;47.526;10.028;2023-02-15T04:01:33;92706.06;;;1.16;65.78
63493;BME280;49638;47.526;10.028;2023-02-15T04:04:53;92719.38;;;1.21;65.64
63493;BME280;49638;47.526;10.028;2023-02-15T04:07:53;92706.06;;;1.16;65.88
63493;BME280;49638;47.526;10.028;2023-02-15T04:10:53;92704.75;;;1.04;66.01
63493;BME280;49638;47.526;10.028;2023-02-15T04:13:55;92706.38;;;0.97;66.38
63493;BME280;49638;47.526;10.028;2023-02-15T04:16:56;92706.00;;;0.83;66.86
63493;BME280;49638;47.526;10.028;2023-02-15T04:19:56;92702.44;;;0.84;67.03
63493;BME280;49638;47.526;10.028;2023-02-15T04:23:15;92701.94;;;0.81;66.76
63493;BME280;49638;47.526;10.028;2023-02-15T04:26:34;92707.47;;;0.78;66.87
63493;BME280;49638;47.526;10.028;2023-02-15T04:29:34;92711.22;;;0.83;66.48
63493;BME280;49638;47.526;10.028;2023-02-15T04:32:35;92714.97;;;0.89;66.19
63493;BME280;49638;47.526;10.028;2023-02-15T04:35:35;92718.06;;;0.92;66.79
63493;BME280;49638;47.526;10.028;2023-02-15T04:38:36;92710.41;;;0.91;66.32
63493;BME280;49638;47.526;10.028;2023-02-15T04:41:36;92720.34;;;0.96;66.02
63493;BME280;49638;47.526;10.028;2023-02-15T04:44:36;92720.31;;;0.87;66.36
63493;BME280;49638;47.526;10.028;2023-02-15T04:47:37;92718.22;;;0.83;66.38
63493;BME280;49638;47.526;10.028;2023-02-15T04:50:37;92710.72;;;0.80;66.32
63493;BME280;49638;47.526;10.028;2023-02-15T04:53:37;92711.53;;;0.80;66.33
63493;BME280;49638;47.526;10.028;2023-02-15T04:56:37;92697.06;;;0.78;65.98
63493;BME280;49638;47.526;10.028;2023-02-15T04:59:38;92712.38;;;0.97;65.48
63493;BME280;49638;47.526;10.028;2023-02-15T05:02:39;92714.50;;;1.02;65.83
63493;BME280;49638;47.526;10.028;2023-02-15T05:05:39;92704.06;;;0.93;66.05
63493;BME280;49638;47.526;10.028;2023-02-15T05:08:40;92708.97;;;0.88;66.22
63493;BME280;49638;47.526;10.028;2023-02-15T05:11:40;92699.81;;;0.76;66.26
63493;BME280;49638;47.526;10.028;2023-02-15T05:14:41;92695.56;;;0.67;66.51
63493;BME280;49638;47.526;10.028;2023-02-15T05:17:41;92697.38;;;0.66;66.46
63493;BME280;49638;47.526;10.028;2023-02-15T05:20:42;92699.47;;;0.63;66.74
63493;BME280;49638;47.526;10.028;2023-02-15T05:23:42;92700.78;;;0.67;66.53
63493;BME280;49638;47.526;10.028;2023-02-15T05:26:42;92705.97;;;0.67;66.26
63493;BME280;49638;47.526;10.028;2023-02-15T05:30:21;92704.69;;;0.71;66.04
63493;BME280;49638;47.526;10.028;2023-02-15T05:33:21;92703.41;;;0.75;65.71
63493;BME280;49638;47.526;10.028;2023-02-15T05:36:21;92702.75;;;0.81;65.48
63493;BME280;49638;47.526;10.028;2023-02-15T05:39:22;92686.00;;;0.84;65.18
63493;BME280;49638;47.526;10.028;2023-02-15T05:42:22;92683.91;;;0.87;65.08
63493;BME280;49638;47.526;10.028;2023-02-15T05:45:23;92707.34;;;1.04;65.16
63493;BME280;49638;47.526;10.028;2023-02-15T05:48:25;92711.25;;;1.08;65.21
63493;BME280;49638;47.526;10.028;2023-02-15T05:51:25;92704.41;;;1.07;65.03
63493;BME280;49638;47.526;10.028;2023-02-15T05:54:26;92698.38;;;0.98;65.43
63493;BME280;49638;47.526;10.028;2023-02-15T05:57:26;92715.78;;;0.98;65.56
63493;BME280;49638;47.526;10.028;2023-02-15T06:00:27;92713.50;;;0.94;65.63
63493;BME280;49638;47.526;10.028;2023-02-15T06:03:27;92702.59;;;0.91;65.42
63493;BME280;49638;47.526;10.028;2023-02-15T06:06:28;92714.84;;;0.99;65.36
63493;BME280;49638;47.526;10.028;2023-02-15T06:09:29;92709.78;;;0.97;65.17
63493;BME280;49638;47.526;10.028;2023-02-15T06:12:29;92712.56;;;0.96;65.46
63493;BME280;49638;47.526;10.028;2023-02-15T06:15:29;92703.91;;;0.87;65.34
63493;BME280;49638;47.526;10.028;2023-02-15T06:18:30;92708.31;;;0.86;65.64
63493;BME280;49638;47.526;10.028;2023-02-15T06:21:30;92692.50;;;0.72;65.66
63493;BME280;49638;47.526;10.028;2023-02-15T06:24:30;92709.59;;;0.82;65.47
63493;BME280;49638;47.526;10.028;2023-02-15T06:27:30;92694.00;;;0.82;65.92
63493;BME280;49638;47.526;10.028;2023-02-15T06:30:31;92706.97;;;0.74;66.17
63493;BME280;49638;47.526;10.028;2023-02-15T06:33:32;92716.56;;;0.65;66.51
63493;BME280;49638;47.526;10.028;2023-02-15T06:36:33;92715.06;;;0.63;66.27
63493;BME280;49638;47.526;10.028;2023-02-15T06:39:34;92723.25;;;0.68;65.88
63493;BME280;49638;47.526;10.028;2023-02-15T06:42:34;92726.16;;;0.73;65.71
63493;BME280;49638;47.526;10.028;2023-02-15T06:45:34;92720.97;;;0.81;65.52
63493;BME280;49638;47.526;10.028;2023-02-15T06:48:35;92731.56;;;0.88;65.63
63493;BME280;49638;47.526;10.028;2023-02-15T06:51:35;92734.63;;;0.91;65.17
63493;BME280;49638;47.526;10.028;2023-02-15T06:54:35;92739.22;;;0.98;65.30
63493;BME280;49638;47.526;10.028;2023-02-15T06:57:35;92737.59;;;0.97;65.29
63493;BME280;49638;47.526;10.028;2023-02-15T07:00:36;92745.22;;;0.98;65.38
63493;BME280;49638;47.526;10.028;2023-02-15T07:03:36;92734.31;;;0.94;65.66
63493;BME280;49638;47.526;10.028;2023-02-15T07:06:37;92743.28;;;1.00;65.22
63493;BME280;49638;47.526;10.028;2023-02-15T07:09:38;92741.84;;;1.06;65.39
63493;BME280;49638;47.526;10.028;2023-02-15T07:12:38;92744.13;;;1.09;65.48
63493;BME280;49638;47.526;10.028;2023-02-15T07:15:41;92745.41;;;1.05;65.73
63493;BME280;49638;47.526;10.028;2023-02-15T07:18:41;92744.78;;;1.11;65.60
63493;BME280;49638;47.526;10.028;2023-02-15T07:21:41;92745.75;;;1.18;65.29
63493;BME280;49638;47.526;10.028;2023-02-15T07:24:42;92742.19;;;1.27;64.88
63493;BME280;49638;47.526;10.028;2023-02-15T07:27:42;92745.75;;;1.34;64.96
63493;BME280;49638;47.526;10.028;2023-02-15T07:30:44;92737.81;;;1.36;65.12
63493;BME280;49638;47.526;10.028;2023-02-15T07:33:44;92738.28;;;1.39;64.86
63493;BME280;49638;47.526;10.028;2023-02-15T07:36:45;92738.63;;;1.36;64.77
63493;BME280;49638;47.526;10.028;2023-02-15T07:39:45;92737.63;;;1.54;64.46
63493;BME280;49638;47.526;10.028;2023-02-15T07:42:45;92728.03;;;1.54;64.31
63493;BME280;49638;47.526;10.028;2023-02-15T07:45:46;92740.06;;;1.63;64.67
63493;BME280;49638;47.526;10.028;2023-02-15T07:48:47;92738.91;;;1.66;64.60
63493;BME280;49638;47.526;10.028;2023-02-15T07:51:47;92733.22;;;1.62;64.19
63493;BME280;49638;47.526;10.028;2023-02-15T07:54:47;92734.66;;;1.73;63.99
63493;BME280;49638;47.526;10.028;2023-02-15T07:57:49;92733.69;;;1.82;63.95
63493;BME280;49638;47.526;10.028;2023-02-15T08:00:50;92734.66;;;1.89;63.79
63493;BME280;49638;47.526;10.028;2023-02-15T08:04:02;92725.03;;;1.98;63.96
63493;BME280;49638;47.526;10.028;2023-02-15T08:07:03;92719.16;;;1.96;63.93
63493;BME280;49638;47.526;10.028;2023-02-15T08:10:04;92714.91;;;2.03;64.03
63493;BME280;49638;47.526;10.028;2023-02-15T08:13:05;92713.09;;;2.12;63.82
63493;BME280;49638;47.526;10.028;2023-02-15T08:16:05;92714.56;;;2.15;63.96
63493;BME280;49638;47.526;10.028;2023-02-15T08:22:12;92714.53;;;2.23;63.66
63493;BME280;49638;47.526;10.028;2023-02-15T08:25:12;92707.50;;;2.31;63.77
63493;BME280;49638;47.526;10.028;2023-02-15T08:28:12;92712.00;;;2.46;63.63
63493;BME280;49638;47.526;10.028;2023-02-15T08:31:13;92713.59;;;2.55;63.40
63493;BME280;49638;47.526;10.028;2023-02-15T08:34:16;92718.44;;;2.66;63.16
63493;BME280;49638;47.526;10.028;2023-02-15T08:37:17;92707.13;;;2.74;63.02
63493;BME280;49638;47.526;10.028;2023-02-15T08:40:17;92708.06;;;2.81;63.22
63493;BME280;49638;47.526;10.028;2023-02-15T08:43:17;92704.75;;;2.87;62.55
63493;BME280;49638;47.526;10.028;2023-02-15T08:46:18;92705.69;;;2.94;63.01
63493;BME280;49638;47.526;10.028;2023-02-15T08:49:20;92701.94;;;2.97;62.83
63493;BME280;49638;47.526;10.028;2023-02-15T08:52:20;92707.28;;;3.03;62.50
63493;BME280;49638;47.526;10.028;2023-02-15T08:55:21;92698.63;;;3.03;62.20
63493;BME280;49638;47.526;10.028;2023-02-15T08:58:21;92707.63;;;3.23;61.76
63493;BME280;49638;47.526;10.028;2023-02-15T09:01:24;92704.03;;;3.24;62.19
63493;BME280;49638;47.526;10.028;2023-02-15T09:04:25;92700.06;;;3.28;62.30
63493;BME280;49638;47.526;10.028;2023-02-15T09:07:25;92701.81;;;3.36;62.46
63493;BME280;49638;47.526;10.028;2023-02-15T09:10:25;92703.56;;;3.44;62.30
63493;BME280;49638;47.526;10.028;2023-02-15T09:13:26;92699.06;;;3.52;62.04
63493;BME280;49638;47.526;10.028;2023-02-15T09:16:28;92698.22;;;3.60;61.97
63493;BME280;49638;47.526;10.028;2023-02-15T09:19:29;92697.13;;;3.69;61.84
63493;BME280;49638;47.526;10.028;2023-02-15T09:22:29;92695.25;;;3.78;62.06
63493;BME280;49638;47.526;10.028;2023-02-15T09:25:31;92679.63;;;3.70;62.12
63493;BME280;49638;47.526;10.028;2023-02-15T09:28:31;92683.44;;;3.82;61.70
63493;BME280;49638;47.526;10.028;2023-02-15T09:31:38;92693.56;;;4.00;60.36
63493;BME280;49638;47.526;10.028;2023-02-15T09:34:38;92681.84;;;4.11;60.93
63493;BME280;49638;47.526;10.028;2023-02-15T09:37:39;92695.66;;;4.19;60.83
63493;BME280;49638;47.526;10.028;2023-02-15T09:40:46;92702.06;;;4.32;60.06
63493;BME280;49638;47.526;10.028;2023-02-15T09:44:04;92688.78;;;4.33;57.92
63493;BME280;49638;47.526;10.028;2023-02-15T09:50:32;92706.44;;;4.61;59.83
63493;BME280;49638;47.526;10.028;2023-02-15T09:57:27;92708.88;;;4.77;57.69
63493;BME280;49638;47.526;10.028;2023-02-15T10:00:54;92705.53;;;4.83;56.45
63493;BME280;49638;47.526;10.028;2023-02-15T10:04:09;92707.59;;;4.88;59.39
63493;BME280;49638;47.526;10.028;2023-02-15T10:07:33;92706.22;;;4.92;56.78
63493;BME280;49638;47.526;10.028;2023-02-15T10:10:48;92706.13;;;5.00;58.77
63493;BME280;49638;47.526;10.028;2023-02-15T10:20:45;92708.25;;;5.11;55.98
63493;BME280;49638;47.526;10.028;2023-02-15T10:24:02;92706.06;;;5.15;58.03
63493;BME280;49638;47.526;10.028;2023-02-15T10:27:13;92703.44;;;5.15;58.79
63493;BME280;49638;47.526;10.028;2023-02-15T10:30:23;92699.66;;;5.17;58.97
63493;BME280;49638;47.526;10.028;2023-02-15T10:33:43;92700.25;;;5.19;57.19
63493;BME280;49638;47.526;10.028;2023-02-15T10:43:24;92686.16;;;5.20;57.55
63493;BME280;49638;47.526;10.028;2023-02-15T11:03:40;92671.13;;;5.51;57.37
63493;BME280;49638;47.526;10.028;2023-02-15T11:06:49;92657.59;;;5.47;58.67
63493;BME280;49638;47.526;10.028;2023-02-15T11:10:22;92659.44;;;5.53;58.97
63493;BME280;49638;47.526;10.028;2023-02-15T11:13:16;92656.44;;;5.56;55.90
63493;BME280;49638;47.526;10.028;2023-02-15T11:16:21;92651.63;;;5.60;59.17
63493;BME280;49638;47.526;10.028;2023-02-15T11:19:30;92647.81;;;5.62;59.22
63493;BME280;49638;47.526;10.028;2023-02-15T11:22:33;92641.38;;;5.65;59.78
63493;BME280;49638;47.526;10.028;2023-02-15T11:25:34;92624.41;;;5.61;59.89
63493;BME280;49638;47.526;10.028;2023-02-15T11:28:47;92626.50;;;5.72;58.73
63493;BME280;49638;47.526;10.028;2023-02-15T11:31:53;92632.81;;;5.78;58.91
63493;BME280;49638;47.526;10.028;2023-02-15T11:38:14;92627.41;;;5.86;58.09
63493;BME280;49638;47.526;10.028;2023-02-15T11:41:21;92620.16;;;5.88;59.23
63493;BME280;49638;47.526;10.028;2023-02-15T11:47:27;92606.50;;;5.92;59.00
63493;BME280;49638;47.526;10.028;2023-02-15T11:50:31;92607.16;;;6.01;59.23
63493;BME280;49638;47.526;10.028;2023-02-15T11:53:33;92607.16;;;6.01;59.38
63493;BME280;49638;47.526;10.028;2023-02-15T11:56:36;92609.78;;;6.01;59.49
63493;BME280;49638;47.526;10.028;2023-02-15T11:59:37;92609.19;;;6.06;59.49
63493;BME280;49638;47.526;10.028;2023-02-15T12:02:41;92593.66;;;6.11;56.36
63493;BME280;49638;47.526;10.028;2023-02-15T12:05:47;92601.38;;;6.19;59.21
63493;BME280;49638;47.526;10.028;2023-02-15T12:09:00;92593.94;;;6.23;58.63
63493;BME280;49638;47.526;10.028;2023-02-15T12:12:20;92594.34;;;6.26;57.33
63493;BME280;49638;47.526;10.028;2023-02-15T12:15:30;92587.88;;;6.22;58.45
63493;BME280;49638;47.526;10.028;2023-02-15T12:18:39;92589.50;;;6.30;58.84
63493;BME280;49638;47.526;10.028;2023-02-15T12:21:41;92591.38;;;6.36;59.14
63493;BME280;49638;47.526;10.028;2023-02-15T12:24:47;92586.72;;;6.38;58.28
63493;BME280;49638;47.526;10.028;2023-02-15T12:27:48;92579.47;;;6.40;59.11
63493;BME280;49638;47.526;10.028;2023-02-15T12:30:50;92586.97;;;6.50;58.68
63493;BME280;49638;47.526;10.028;2023-02-15T12:33:54;92578.09;;;6.57;58.01
63493;BME280;49638;47.526;10.028;2023-02-15T12:36:59;92577.75;;;6.74;57.49
63493;BME280;49638;47.526;10.028;2023-02-15T12:40:27;92579.78;;;6.78;55.73
63493;BME280;49638;47.526;10.028;2023-02-15T12:43:34;92572.09;;;6.77;56.88
63493;BME280;49638;47.526;10.028;2023-02-15T12:46:35;92571.28;;;6.76;57.69
63493;BME280;49638;47.526;10.028;2023-02-15T12:49:36;92570.06;;;6.79;57.80
63493;BME280;49638;47.526;10.028;2023-02-15T12:52:37;92562.56;;;6.76;58.08
63493;BME280;49638;47.526;10.028;2023-02-15T12:55:38;92554.72;;;6.69;58.30
63493;BME280;49638;47.526;10.028;2023-02-15T12:59:04;92564.38;;;6.69;55.56
63493;BME280;49638;47.526;10.028;2023-02-15T13:02:15;92552.88;;;6.70;56.51
63493;BME280;49638;47.526;10.028;2023-02-15T13:08:35;92549.25;;;6.71;58.01
63493;BME280;49638;47.526;10.028;2023-02-15T13:11:41;92543.19;;;6.70;57.90
63493;BME280;49638;47.526;10.028;2023-02-15T13:14:47;92540.16;;;6.67;56.99
63493;BME280;49638;47.526;10.028;2023-02-15T13:17:50;92533.25;;;6.66;57.64
63493;BME280;49638;47.526;10.028;2023-02-15T13:20:51;92536.31;;;6.62;57.80
63493;BME280;49638;47.526;10.028;2023-02-15T13:23:56;92527.41;;;6.63;57.50
63493;BME280;49638;47.526;10.028;2023-02-15T13:26:58;92519.50;;;6.57;57.92
63493;BME280;49638;47.526;10.028;2023-02-15T13:30:00;92518.09;;;6.61;57.54
63493;BME280;49638;47.526;10.028;2023-02-15T13:33:16;92515.44;;;6.41;56.57
63493;BME280;49638;47.526;10.028;2023-02-15T13:39:50;92526.38;;;6.51;56.64
63493;BME280;49638;47.526;10.028;2023-02-15T13:43:05;92528.38;;;6.43;56.17
63493;BME280;49638;47.526;10.028;2023-02-15T13:46:18;92522.31;;;6.42;57.70
63493;BME280;49638;47.526;10.028;2023-02-15T13:49:31;92524.09;;;6.42;57.50
63493;BME280;49638;47.526;10.028;2023-02-15T13:52:45;92522.72;;;6.39;56.31
63493;BME280;49638;47.526;10.028;2023-02-15T13:56:06;92524.31;;;6.40;56.99
63493;BME280;49638;47.526;10.028;2023-02-15T14:02:37;92515.66;;;6.39;57.44
63493;BME280;49638;47.526;10.028;2023-02-15T14:09:07;92514.84;;;6.39;56.70
63493;BME280;49638;47.526;10.028;2023-02-15T14:18:37;92511.59;;;6.37;54.79
63493;BME280;49638;47.526;10.028;2023-02-15T14:21:47;92514.22;;;6.37;55.75
63493;BME280;49638;47.526;10.028;2023-02-15T14:25:02;92495.19;;;6.28;55.99
63493;BME280;49638;47.526;10.028;2023-02-15T14:31:09;92510.94;;;6.22;56.93
63493;BME280;49638;47.526;10.028;2023-02-15T14:34:22;92514.56;;;6.21;55.70
63493;BME280;49638;47.526;10.028;2023-02-15T14:37:46;92514.56;;;6.21;54.63
63493;BME280;49638;47.526;10.028;2023-02-15T14:41:03;92508.09;;;6.16;54.86
63493;BME280;49638;47.526;10.028;2023-02-15T14:47:18;92511.50;;;6.10;56.35
63493;BME280;49638;47.526;10.028;2023-02-15T14:50:38;92500.34;;;5.95;55.39
63493;BME280;49638;47.526;10.028;2023-02-15T14:53:38;92502.19;;;6.01;57.31
63493;BME280;49638;47.526;10.028;2023-02-15T14:56:39;92512.91;;;6.06;57.25
63493;BME280;49638;47.526;10.028;2023-02-15T14:59:50;92509.84;;;6.03;57.31
63493;BME280;49638;47.526;10.028;2023-02-15T15:02:52;92507.94;;;5.90;57.82
63493;BME280;49638;47.526;10.028;2023-02-15T15:05:56;92521.63;;;5.79;58.20
63493;BME280;49638;47.526;10.028;2023-02-15T15:09:12;92519.59;;;5.74;58.11
63493;BME280;49638;47.526;10.028;2023-02-15T15:15:45;92506.03;;;5.70;56.40
63493;BME280;49638;47.526;10.028;2023-02-15T15:18:48;92517.75;;;5.68;58.27
63493;BME280;49638;47.526;10.028;2023-02-15T15:25:07;92523.38;;;5.65;58.36
63493;BME280;49638;47.526;10.028;2023-02-15T15:28:09;92520.13;;;5.63;58.47
63493;BME280;49638;47.526;10.028;2023-02-15T15:31:40;92515.44;;;5.52;58.46
63493;BME280;49638;47.526;10.028;2023-02-15T15:38:21;92526.41;;;5.34;58.96
63493;BME280;49638;47.526;10.028;2023-02-15T15:41:41;92531.31;;;5.15;59.52
63493;BME280;49638;47.526;10.028;2023-02-15T15:45:02;92526.34;;;4.99;59.55
63493;BME280;49638;47.526;10.028;2023-02-15T15:48:22;92535.03;;;5.00;59.92
63493;BME280;49638;47.526;10.028;2023-02-15T15:51:31;92533.34;;;4.92;60.26
63493;BME280;49638;47.526;10.028;2023-02-15T15:54:33;92543.53;;;4.80;60.67
63493;BME280;49638;47.526;10.028;2023-02-15T15:57:38;92550.69;;;4.71;61.01
63493;BME280;49638;47.526;10.028;2023-02-15T16:00:41;92543.97;;;4.62;61.17
63493;BME280;49638;47.526;10.028;2023-02-15T16:03:50;92548.94;;;4.57;61.65
63493;BME280;49638;47.526;10.028;2023-02-15T16:06:51;92543.94;;;4.41;61.72
63493;BME280;49638;47.526;10.028;2023-02-15T16:12:58;92546.59;;;4.26;61.79
63493;BME280;49638;47.526;10.028;2023-02-15T16:15:59;92544.50;;;4.36;61.65
63493;BME280;49638;47.526;10.028;2023-02-15T16:18:59;92556.03;;;4.42;61.46
63493;BME280;49638;47.526;10.028;2023-02-15T16:22:00;92556.22;;;4.40;61.52
63493;BME280;49638;47.526;10.028;2023-02-15T16:25:19;92551.78;;;4.41;61.19
63493;BME280;49638;47.526;10.028;2023-02-15T16:28:22;92561.44;;;4.40;61.27
63493;BME280;49638;47.526;10.028;2023-02-15T16:31:23;92566.50;;;4.42;61.18
63493;BME280;49638;47.526;10.028;2023-02-15T16:34:23;92555.13;;;4.35;61.03
63493;BME280;49638;47.526;10.028;2023-02-15T16:37:26;92575.78;;;4.44;61.23
63493;BME280;49638;47.526;10.028;2023-02-15T16:40:38;92565.88;;;4.40;61.00
63493;BME280;49638;47.526;10.028;2023-02-15T16:43:42;92571.09;;;4.40;61.27
63493;BME280;49638;47.526;10.028;2023-02-15T16:46:46;92558.69;;;4.27;61.22
63493;BME280;49638;47.526;10.028;2023-02-15T16:49:49;92579.06;;;4.32;61.50
63493;BME280;49638;47.526;10.028;2023-02-15T16:52:51;92580.25;;;4.29;61.46
63493;BME280;49638;47.526;10.028;2023-02-15T16:55:55;92573.56;;;4.26;61.57
63493;BME280;49638;47.526;10.028;2023-02-15T16:58:56;92579.81;;;4.25;61.52
63493;BME280;49638;47.526;10.028;2023-02-15T17:01:58;92587.22;;;4.22;61.59
63493;BME280;49638;47.526;10.028;2023-02-15T17:05:06;92581.53;;;4.18;61.66
63493;BME280;49638;47.526;10.028;2023-02-15T17:11:15;92588.50;;;4.11;61.90
63493;BME280;49638;47.526;10.028;2023-02-15T17:14:20;92596.16;;;3.98;62.29
63493;BME280;49638;47.526;10.028;2023-02-15T17:17:21;92587.34;;;3.84;62.52
63493;BME280;49638;47.526;10.028;2023-02-15T17:20:23;92582.09;;;3.69;62.68
63493;BME280;49638;47.526;10.028;2023-02-15T17:23:36;92585.53;;;3.70;62.72
63493;BME280;49638;47.526;10.028;2023-02-15T17:26:37;92586.06;;;3.65;62.80
63493;BME280;49638;47.526;10.028;2023-02-15T17:29:39;92594.47;;;3.61;62.97
63493;BME280;49638;47.526;10.028;2023-02-15T17:33:02;92598.34;;;3.65;62.23
63493;BME280;49638;47.526;10.028;2023-02-15T17:39:19;92606.34;;;3.63;62.03
63493;BME280;49638;47.526;10.028;2023-02-15T17:42:20;92615.19;;;3.62;62.38
63493;BME280;49638;47.526;10.028;2023-02-15T17:45:21;92604.47;;;3.57;62.20
63493;BME280;49638;47.526;10.028;2023-02-15T17:48:36;92620.50;;;3.54;62.38
63493;BME280;49638;47.526;10.028;2023-02-15T17:51:37;92614.25;;;3.40;62.97
63493;BME280;49638;47.526;10.028;2023-02-15T17:54:37;92614.25;;;3.40;62.21
63493;BME280;49638;47.526;10.028;2023-02-15T17:57:55;92623.06;;;3.39;62.43
63493;BME280;49638;47.526;10.028;2023-02-15T18:00:57;92614.97;;;3.34;62.36
63493;BME280;49638;47.526;10.028;2023-02-15T18:04:20;92611.34;;;3.35;62.29
63493;BME280;49638;47.526;10.028;2023-02-15T18:07:39;92619.84;;;3.37;62.13
63493;BME280;49638;47.526;10.028;2023-02-15T18:10:59;92615.50;;;3.29;62.47